sensor_id;sensor_type;location;lat;lon;timestamp;noise_LAeq;noise_LA_min;noise_LA_max;noise_LA01;noise_LA95
58303;Laerm;44109;52.398;7.024;2023-07-30T00:01:39;46.75;31.84;56.56;;
58303;Laerm;44109;52.398;7.024;2023-07-30T00:04:07;46.84;32.62;56.72;;
58303;Laerm;44109;52.398;7.024;2023-07-30T00:06:34;46.78;32.73;56.74;;
58303;Laerm;44109;52.398;7.024;2023-07-30T00:09:02;46.74;32.18;56.86;;
58303;Laerm;44109;52.398;7.024;2023-07-30T00:11:31;46.70;32.04;56.69;;
58303;Laerm;44109;52.398;7.024;2023-07-30T00:13:59;46.80;31.66;56.74;;
58303;Laerm;44109;52.398;7.024;2023-07-30T00:16:26;46.86;31.80;56.73;;
58303;Laerm;44109;52.398;7.024;2023-07-30T00:18:54;46.76;32.12;56.60;;
58303;Laerm;44109;52.398;7.024;2023-07-30T00:21:23;46.80;32.24;56.98;;
58303;Laerm;44109;52.398;7.024;2023-07-30T00:23:50;46.75;30.92;56.66;;
58303;Laerm;44109;52.398;7.024;2023-07-30T00:26:18;46.79;31.66;56.73;;
58303;Laerm;44109;52.398;7.024;2023-07-30T00:28:47;46.74;32.02;56.91;;
58303;Laerm;44109;52.398;7.024;2023-07-30T00:31:15;46.97;32.20;56.88;;
58303;Laerm;44109;52.398;7.024;2023-07-30T00:33:42;46.89;32.42;57.37;;
58303;Laerm;44109;52.398;7.024;2023-07-30T00:36:10;46.79;32.27;57.00;;
58303;Laerm;44109;52.398;7.024;2023-07-30T00:38:37;46.71;32.09;56.85;;
58303;Laerm;44109;52.398;7.024;2023-07-30T00:41:05;46.71;31.65;56.83;;
58303;Laerm;44109;52.398;7.024;2023-07-30T00:43:33;46.68;32.11;56.71;;
58303;Laerm;44109;52.398;7.024;2023-07-30T00:46:02;46.76;32.32;56.89;;
58303;Laerm;44109;52.398;7.024;2023-07-30T00:48:30;46.66;32.25;57.12;;
58303;Laerm;44109;52.398;7.024;2023-07-30T00:50:58;46.85;32.71;56.88;;
58303;Laerm;44109;52.398;7.024;2023-07-30T00:53:27;46.83;33.75;56.64;;
58303;Laerm;44109;52.398;7.024;2023-07-30T00:55:56;46.80;32.66;57.07;;
58303;Laerm;44109;52.398;7.024;2023-07-30T00:58:24;46.81;33.57;56.90;;
58303;Laerm;44109;52.398;7.024;2023-07-30T01:00:54;46.66;32.24;56.70;;
58303;Laerm;44109;52.398;7.024;2023-07-30T01:03:23;46.72;32.82;56.74;;
58303;Laerm;44109;52.398;7.024;2023-07-30T01:05:51;46.80;32.22;56.58;;
58303;Laerm;44109;52.398;7.024;2023-07-30T01:08:19;46.69;32.24;56.69;;
58303;Laerm;44109;52.398;7.024;2023-07-30T01:10:48;46.56;31.88;56.63;;
58303;Laerm;44109;52.398;7.024;2023-07-30T01:13:16;46.69;32.04;56.74;;
58303;Laerm;44109;52.398;7.024;2023-07-30T01:15:45;46.68;32.31;56.50;;
58303;Laerm;44109;52.398;7.024;2023-07-30T01:18:14;46.58;31.69;56.84;;
58303;Laerm;44109;52.398;7.024;2023-07-30T01:20:43;46.61;32.09;57.02;;
58303;Laerm;44109;52.398;7.024;2023-07-30T01:23:12;46.69;32.10;56.84;;
58303;Laerm;44109;52.398;7.024;2023-07-30T01:25:42;46.76;33.11;56.68;;
58303;Laerm;44109;52.398;7.024;2023-07-30T01:28:17;46.63;32.16;56.87;;
58303;Laerm;44109;52.398;7.024;2023-07-30T01:30:47;46.69;31.98;56.78;;
58303;Laerm;44109;52.398;7.024;2023-07-30T01:33:16;46.73;33.15;56.94;;
58303;Laerm;44109;52.398;7.024;2023-07-30T01:35:44;46.86;33.12;56.72;;
58303;Laerm;44109;52.398;7.024;2023-07-30T01:38:13;46.74;33.02;56.61;;
58303;Laerm;44109;52.398;7.024;2023-07-30T01:40:41;46.91;32.36;56.66;;
58303;Laerm;44109;52.398;7.024;2023-07-30T01:43:10;46.84;33.46;56.71;;
58303;Laerm;44109;52.398;7.024;2023-07-30T01:45:37;46.95;33.65;56.69;;
58303;Laerm;44109;52.398;7.024;2023-07-30T01:48:06;46.76;32.83;56.80;;
58303;Laerm;44109;52.398;7.024;2023-07-30T01:50:34;46.86;33.35;56.96;;
58303;Laerm;44109;52.398;7.024;2023-07-30T01:53:01;46.70;32.83;56.96;;
58303;Laerm;44109;52.398;7.024;2023-07-30T01:55:30;46.87;32.82;56.75;;
58303;Laerm;44109;52.398;7.024;2023-07-30T01:57:58;47.27;34.83;56.64;;
58303;Laerm;44109;52.398;7.024;2023-07-30T02:00:25;47.25;33.27;56.81;;
58303;Laerm;44109;52.398;7.024;2023-07-30T02:02:53;47.06;34.77;56.62;;
58303;Laerm;44109;52.398;7.024;2023-07-30T02:05:20;46.94;33.22;56.51;;
58303;Laerm;44109;52.398;7.024;2023-07-30T02:07:48;46.79;33.42;56.76;;
58303;Laerm;44109;52.398;7.024;2023-07-30T02:10:16;46.87;34.79;56.86;;
58303;Laerm;44109;52.398;7.024;2023-07-30T02:12:45;47.18;33.85;57.04;;
58303;Laerm;44109;52.398;7.024;2023-07-30T02:15:12;47.18;33.75;56.65;;
58303;Laerm;44109;52.398;7.024;2023-07-30T02:17:40;46.96;34.18;56.70;;
58303;Laerm;44109;52.398;7.024;2023-07-30T02:20:09;47.02;34.78;56.82;;
58303;Laerm;44109;52.398;7.024;2023-07-30T02:22:36;46.85;33.81;56.58;;
58303;Laerm;44109;52.398;7.024;2023-07-30T02:25:05;47.11;35.08;56.58;;
58303;Laerm;44109;52.398;7.024;2023-07-30T02:27:33;46.90;34.41;56.64;;
58303;Laerm;44109;52.398;7.024;2023-07-30T02:30:03;47.02;33.76;56.89;;
58303;Laerm;44109;52.398;7.024;2023-07-30T02:32:30;47.02;35.56;56.63;;
58303;Laerm;44109;52.398;7.024;2023-07-30T02:34:58;47.17;34.39;56.66;;
58303;Laerm;44109;52.398;7.024;2023-07-30T02:37:25;47.37;33.84;56.72;;
58303;Laerm;44109;52.398;7.024;2023-07-30T02:39:53;46.91;34.04;56.47;;
58303;Laerm;44109;52.398;7.024;2023-07-30T02:42:21;47.45;35.68;57.08;;
58303;Laerm;44109;52.398;7.024;2023-07-30T02:44:48;47.10;32.39;56.89;;
58303;Laerm;44109;52.398;7.024;2023-07-30T02:47:18;47.26;35.37;56.83;;
58303;Laerm;44109;52.398;7.024;2023-07-30T02:49:45;47.06;33.72;56.57;;
58303;Laerm;44109;52.398;7.024;2023-07-30T02:52:13;48.66;34.19;72.82;;
58303;Laerm;44109;52.398;7.024;2023-07-30T02:54:40;47.22;33.42;56.88;;
58303;Laerm;44109;52.398;7.024;2023-07-30T02:57:08;47.27;34.12;56.96;;
58303;Laerm;44109;52.398;7.024;2023-07-30T02:59:36;47.11;35.50;56.84;;
58303;Laerm;44109;52.398;7.024;2023-07-30T03:02:05;46.99;34.67;56.73;;
58303;Laerm;44109;52.398;7.024;2023-07-30T03:04:34;47.57;35.25;57.08;;
58303;Laerm;44109;52.398;7.024;2023-07-30T03:07:02;47.70;37.64;56.77;;
58303;Laerm;44109;52.398;7.024;2023-07-30T03:09:30;46.88;33.59;56.87;;
58303;Laerm;44109;52.398;7.024;2023-07-30T03:11:57;47.15;33.43;56.79;;
58303;Laerm;44109;52.398;7.024;2023-07-30T03:14:25;47.39;34.18;56.80;;
58303;Laerm;44109;52.398;7.024;2023-07-30T03:16:53;47.31;33.72;58.29;;
58303;Laerm;44109;52.398;7.024;2023-07-30T03:19:20;47.37;35.24;56.65;;
58303;Laerm;44109;52.398;7.024;2023-07-30T03:21:49;47.00;33.45;56.70;;
58303;Laerm;44109;52.398;7.024;2023-07-30T03:24:17;47.14;34.75;56.80;;
58303;Laerm;44109;52.398;7.024;2023-07-30T03:26:44;47.05;33.31;57.03;;
58303;Laerm;44109;52.398;7.024;2023-07-30T03:29:12;47.29;35.48;57.14;;
58303;Laerm;44109;52.398;7.024;2023-07-30T03:31:39;47.16;34.66;58.32;;
58303;Laerm;44109;52.398;7.024;2023-07-30T03:34:07;47.26;35.37;57.06;;
58303;Laerm;44109;52.398;7.024;2023-07-30T03:36:35;47.21;35.03;56.92;;
58303;Laerm;44109;52.398;7.024;2023-07-30T03:39:04;47.45;35.51;56.75;;
58303;Laerm;44109;52.398;7.024;2023-07-30T03:41:31;47.24;34.18;56.73;;
58303;Laerm;44109;52.398;7.024;2023-07-30T03:43:59;47.17;33.90;56.75;;
58303;Laerm;44109;52.398;7.024;2023-07-30T03:46:26;47.47;33.85;56.74;;
58303;Laerm;44109;52.398;7.024;2023-07-30T03:48:54;48.58;33.81;62.29;;
58303;Laerm;44109;52.398;7.024;2023-07-30T03:51:22;48.26;33.60;65.12;;
58303;Laerm;44109;52.398;7.024;2023-07-30T03:53:49;47.08;33.61;57.74;;
58303;Laerm;44109;52.398;7.024;2023-07-30T03:56:18;47.52;35.31;59.97;;
58303;Laerm;44109;52.398;7.024;2023-07-30T03:58:46;47.22;34.46;56.80;;
58303;Laerm;44109;52.398;7.024;2023-07-30T04:01:14;47.21;33.40;56.92;;
58303;Laerm;44109;52.398;7.024;2023-07-30T04:03:41;47.58;34.18;56.90;;
58303;Laerm;44109;52.398;7.024;2023-07-30T04:06:09;48.59;34.16;68.33;;
58303;Laerm;44109;52.398;7.024;2023-07-30T04:08:36;48.21;33.85;63.77;;
58303;Laerm;44109;52.398;7.024;2023-07-30T04:11:04;47.43;33.43;60.12;;
58303;Laerm;44109;52.398;7.024;2023-07-30T04:13:33;47.31;34.09;58.00;;
58303;Laerm;44109;52.398;7.024;2023-07-30T04:16:00;48.80;34.71;62.39;;
58303;Laerm;44109;52.398;7.024;2023-07-30T04:18:28;49.40;33.47;63.08;;
58303;Laerm;44109;52.398;7.024;2023-07-30T04:20:56;49.49;33.73;63.65;;
58303;Laerm;44109;52.398;7.024;2023-07-30T04:23:23;48.56;34.45;63.16;;
58303;Laerm;44109;52.398;7.024;2023-07-30T04:25:51;47.07;33.33;59.20;;
58303;Laerm;44109;52.398;7.024;2023-07-30T04:28:19;47.19;34.42;56.77;;
58303;Laerm;44109;52.398;7.024;2023-07-30T04:30:48;46.97;33.05;57.20;;
58303;Laerm;44109;52.398;7.024;2023-07-30T04:33:15;48.98;35.42;66.21;;
58303;Laerm;44109;52.398;7.024;2023-07-30T04:35:43;47.72;35.44;57.50;;
58303;Laerm;44109;52.398;7.024;2023-07-30T04:38:11;47.80;34.65;60.27;;
58303;Laerm;44109;52.398;7.024;2023-07-30T04:40:39;48.22;34.48;67.86;;
58303;Laerm;44109;52.398;7.024;2023-07-30T04:43:06;47.48;34.12;58.16;;
58303;Laerm;44109;52.398;7.024;2023-07-30T04:45:34;47.75;34.48;65.80;;
58303;Laerm;44109;52.398;7.024;2023-07-30T04:48:04;48.09;33.53;67.17;;
58303;Laerm;44109;52.398;7.024;2023-07-30T04:50:31;47.27;33.77;64.43;;
58303;Laerm;44109;52.398;7.024;2023-07-30T04:52:59;47.05;33.59;56.66;;
58303;Laerm;44109;52.398;7.024;2023-07-30T04:55:27;47.22;32.94;63.11;;
58303;Laerm;44109;52.398;7.024;2023-07-30T04:57:54;47.31;33.89;57.86;;
58303;Laerm;44109;52.398;7.024;2023-07-30T05:00:22;47.69;34.13;60.45;;
58303;Laerm;44109;52.398;7.024;2023-07-30T05:02:49;48.53;34.15;68.44;;
58303;Laerm;44109;52.398;7.024;2023-07-30T05:05:18;46.97;34.02;56.74;;
58303;Laerm;44109;52.398;7.024;2023-07-30T05:07:46;47.91;35.85;60.32;;
58303;Laerm;44109;52.398;7.024;2023-07-30T05:10:13;47.99;33.57;62.90;;
58303;Laerm;44109;52.398;7.024;2023-07-30T05:12:42;47.08;34.10;61.26;;
58303;Laerm;44109;52.398;7.024;2023-07-30T05:15:10;47.27;35.34;56.76;;
58303;Laerm;44109;52.398;7.024;2023-07-30T05:17:37;47.07;34.98;58.91;;
58303;Laerm;44109;52.398;7.024;2023-07-30T05:20:07;47.26;34.63;56.65;;
58303;Laerm;44109;52.398;7.024;2023-07-30T05:22:36;47.52;36.30;60.13;;
58303;Laerm;44109;52.398;7.024;2023-07-30T05:25:05;47.37;37.09;56.66;;
58303;Laerm;44109;52.398;7.024;2023-07-30T05:27:32;47.75;36.72;56.77;;
58303;Laerm;44109;52.398;7.024;2023-07-30T05:30:00;47.42;37.25;62.26;;
58303;Laerm;44109;52.398;7.024;2023-07-30T05:32:28;47.36;35.31;57.11;;
58303;Laerm;44109;52.398;7.024;2023-07-30T05:34:55;47.20;35.06;61.87;;
58303;Laerm;44109;52.398;7.024;2023-07-30T05:37:23;48.25;36.98;65.47;;
58303;Laerm;44109;52.398;7.024;2023-07-30T05:39:52;46.75;34.91;56.81;;
58303;Laerm;44109;52.398;7.024;2023-07-30T05:42:19;47.06;34.10;56.63;;
58303;Laerm;44109;52.398;7.024;2023-07-30T05:44:47;49.10;36.50;57.83;;
58303;Laerm;44109;52.398;7.024;2023-07-30T05:47:14;47.75;37.95;56.92;;
58303;Laerm;44109;52.398;7.024;2023-07-30T05:49:42;47.26;35.38;56.76;;
58303;Laerm;44109;52.398;7.024;2023-07-30T05:52:09;47.89;35.81;61.60;;
58303;Laerm;44109;52.398;7.024;2023-07-30T05:54:37;47.88;33.97;57.10;;
58303;Laerm;44109;52.398;7.024;2023-07-30T05:57:06;48.21;34.47;61.49;;
58303;Laerm;44109;52.398;7.024;2023-07-30T05:59:34;48.93;38.21;60.29;;
58303;Laerm;44109;52.398;7.024;2023-07-30T06:02:03;48.54;35.32;65.08;;
58303;Laerm;44109;52.398;7.024;2023-07-30T06:04:30;49.11;37.08;62.24;;
58303;Laerm;44109;52.398;7.024;2023-07-30T06:07:00;50.53;38.41;57.90;;
58303;Laerm;44109;52.398;7.024;2023-07-30T06:09:27;50.10;36.57;59.76;;
58303;Laerm;44109;52.398;7.024;2023-07-30T06:11:56;50.84;36.52;61.09;;
58303;Laerm;44109;52.398;7.024;2023-07-30T06:14:26;47.68;35.16;59.00;;
58303;Laerm;44109;52.398;7.024;2023-07-30T06:16:54;48.95;36.43;62.01;;
58303;Laerm;44109;52.398;7.024;2023-07-30T06:19:22;48.95;35.90;58.80;;
58303;Laerm;44109;52.398;7.024;2023-07-30T06:21:49;49.10;39.51;68.39;;
58303;Laerm;44109;52.398;7.024;2023-07-30T06:24:17;48.39;37.07;57.51;;
58303;Laerm;44109;52.398;7.024;2023-07-30T06:26:45;48.44;38.76;57.46;;
58303;Laerm;44109;52.398;7.024;2023-07-30T06:29:12;48.56;34.43;58.56;;
58303;Laerm;44109;52.398;7.024;2023-07-30T06:31:43;50.21;36.75;60.95;;
58303;Laerm;44109;52.398;7.024;2023-07-30T06:34:10;50.54;35.22;66.69;;
58303;Laerm;44109;52.398;7.024;2023-07-30T06:36:38;50.63;35.64;65.75;;
58303;Laerm;44109;52.398;7.024;2023-07-30T06:39:05;48.17;36.98;58.06;;
58303;Laerm;44109;52.398;7.024;2023-07-30T06:41:33;48.50;37.97;58.04;;
58303;Laerm;44109;52.398;7.024;2023-07-30T06:44:01;48.67;35.98;60.87;;
58303;Laerm;44109;52.398;7.024;2023-07-30T06:46:28;48.57;36.49;61.69;;
58303;Laerm;44109;52.398;7.024;2023-07-30T06:48:57;47.92;36.03;57.30;;
58303;Laerm;44109;52.398;7.024;2023-07-30T06:51:25;48.00;36.50;57.46;;
58303;Laerm;44109;52.398;7.024;2023-07-30T06:53:53;48.20;34.87;58.48;;
58303;Laerm;44109;52.398;7.024;2023-07-30T06:56:20;47.93;35.53;60.99;;
58303;Laerm;44109;52.398;7.024;2023-07-30T06:58:48;48.29;37.34;63.56;;
58303;Laerm;44109;52.398;7.024;2023-07-30T07:01:16;48.50;34.90;64.46;;
58303;Laerm;44109;52.398;7.024;2023-07-30T07:03:43;47.86;34.74;57.53;;
58303;Laerm;44109;52.398;7.024;2023-07-30T07:06:12;47.98;36.78;61.02;;
58303;Laerm;44109;52.398;7.024;2023-07-30T07:08:40;48.07;34.80;63.02;;
58303;Laerm;44109;52.398;7.024;2023-07-30T07:11:07;52.18;35.94;76.45;;
58303;Laerm;44109;52.398;7.024;2023-07-30T07:13:35;49.21;37.01;67.16;;
58303;Laerm;44109;52.398;7.024;2023-07-30T07:16:03;49.26;39.63;64.25;;
58303;Laerm;44109;52.398;7.024;2023-07-30T07:18:31;48.70;39.05;57.87;;
58303;Laerm;44109;52.398;7.024;2023-07-30T07:20:58;49.53;35.74;62.75;;
58303;Laerm;44109;52.398;7.024;2023-07-30T07:23:27;49.82;37.58;59.51;;
58303;Laerm;44109;52.398;7.024;2023-07-30T07:25:55;48.21;36.07;60.58;;
58303;Laerm;44109;52.398;7.024;2023-07-30T07:28:22;48.12;35.73;57.53;;
58303;Laerm;44109;52.398;7.024;2023-07-30T07:30:50;48.73;37.35;62.25;;
58303;Laerm;44109;52.398;7.024;2023-07-30T07:33:17;49.73;35.14;74.40;;
58303;Laerm;44109;52.398;7.024;2023-07-30T07:35:45;48.68;35.82;57.75;;
58303;Laerm;44109;52.398;7.024;2023-07-30T07:38:13;49.04;37.59;58.89;;
58303;Laerm;44109;52.398;7.024;2023-07-30T07:40:42;48.91;36.11;62.33;;
58303;Laerm;44109;52.398;7.024;2023-07-30T07:43:11;48.82;36.77;58.95;;
58303;Laerm;44109;52.398;7.024;2023-07-30T07:45:39;50.06;41.72;61.77;;
58303;Laerm;44109;52.398;7.024;2023-07-30T07:48:06;52.64;46.06;64.11;;
58303;Laerm;44109;52.398;7.024;2023-07-30T07:50:34;51.28;41.73;59.88;;
58303;Laerm;44109;52.398;7.024;2023-07-30T07:53:01;50.94;41.19;68.00;;
58303;Laerm;44109;52.398;7.024;2023-07-30T07:55:29;50.28;42.05;58.34;;
58303;Laerm;44109;52.398;7.024;2023-07-30T07:57:58;51.09;39.91;67.13;;
58303;Laerm;44109;52.398;7.024;2023-07-30T08:00:26;51.66;44.32;62.36;;
58303;Laerm;44109;52.398;7.024;2023-07-30T08:02:53;50.01;40.64;70.74;;
58303;Laerm;44109;52.398;7.024;2023-07-30T08:05:21;51.73;39.42;70.70;;
58303;Laerm;44109;52.398;7.024;2023-07-30T08:07:50;51.04;40.61;67.85;;
58303;Laerm;44109;52.398;7.024;2023-07-30T08:10:18;49.67;36.58;70.31;;
58303;Laerm;44109;52.398;7.024;2023-07-30T08:12:46;50.99;38.27;72.53;;
58303;Laerm;44109;52.398;7.024;2023-07-30T08:15:16;54.57;40.36;72.63;;
58303;Laerm;44109;52.398;7.024;2023-07-30T08:17:44;50.25;38.89;64.86;;
58303;Laerm;44109;52.398;7.024;2023-07-30T08:20:11;51.37;38.98;64.14;;
58303;Laerm;44109;52.398;7.024;2023-07-30T08:22:39;50.67;37.22;67.00;;
58303;Laerm;44109;52.398;7.024;2023-07-30T08:25:07;49.92;37.97;65.06;;
58303;Laerm;44109;52.398;7.024;2023-07-30T08:27:35;49.73;38.96;60.93;;
58303;Laerm;44109;52.398;7.024;2023-07-30T08:30:03;48.98;39.12;60.45;;
58303;Laerm;44109;52.398;7.024;2023-07-30T08:32:33;48.56;40.26;57.75;;
58303;Laerm;44109;52.398;7.024;2023-07-30T08:35:01;48.15;38.78;60.02;;
58303;Laerm;44109;52.398;7.024;2023-07-30T08:37:29;48.91;37.44;59.60;;
58303;Laerm;44109;52.398;7.024;2023-07-30T08:39:56;49.10;37.30;60.83;;
58303;Laerm;44109;52.398;7.024;2023-07-30T08:42:24;50.80;40.36;67.53;;
58303;Laerm;44109;52.398;7.024;2023-07-30T08:44:52;49.39;39.67;57.96;;
58303;Laerm;44109;52.398;7.024;2023-07-30T08:47:19;49.81;39.36;60.93;;
58303;Laerm;44109;52.398;7.024;2023-07-30T08:49:48;49.10;39.59;59.09;;
58303;Laerm;44109;52.398;7.024;2023-07-30T08:52:17;49.21;39.35;68.28;;
58303;Laerm;44109;52.398;7.024;2023-07-30T08:54:49;49.36;40.79;57.23;;
58303;Laerm;44109;52.398;7.024;2023-07-30T08:57:18;48.78;39.13;57.42;;
58303;Laerm;44109;52.398;7.024;2023-07-30T08:59:51;49.59;41.86;58.04;;
58303;Laerm;44109;52.398;7.024;2023-07-30T09:02:26;48.89;39.66;58.18;;
58303;Laerm;44109;52.398;7.024;2023-07-30T09:05:00;50.59;41.06;59.36;;
58303;Laerm;44109;52.398;7.024;2023-07-30T09:07:28;49.21;39.08;57.59;;
58303;Laerm;44109;52.398;7.024;2023-07-30T09:09:56;50.58;39.98;80.40;;
58303;Laerm;44109;52.398;7.024;2023-07-30T09:12:26;50.07;39.83;65.37;;
58303;Laerm;44109;52.398;7.024;2023-07-30T09:14:56;50.52;42.30;62.38;;
58303;Laerm;44109;52.398;7.024;2023-07-30T09:17:23;51.17;42.13;63.10;;
58303;Laerm;44109;52.398;7.024;2023-07-30T09:19:52;49.57;41.38;59.98;;
58303;Laerm;44109;52.398;7.024;2023-07-30T09:22:25;49.97;39.04;59.11;;
58303;Laerm;44109;52.398;7.024;2023-07-30T09:24:53;46.19;39.01;62.50;;
58303;Laerm;44109;52.398;7.024;2023-07-30T09:27:23;50.43;38.89;61.20;;
58303;Laerm;44109;52.398;7.024;2023-07-30T09:29:54;50.41;42.08;61.90;;
58303;Laerm;44109;52.398;7.024;2023-07-30T09:32:26;50.00;39.16;60.37;;
58303;Laerm;44109;52.398;7.024;2023-07-30T09:34:54;50.59;40.26;62.07;;
58303;Laerm;44109;52.398;7.024;2023-07-30T09:37:24;51.44;44.20;58.84;;
58303;Laerm;44109;52.398;7.024;2023-07-30T09:39:51;51.34;42.97;59.63;;
58303;Laerm;44109;52.398;7.024;2023-07-30T09:42:19;50.98;40.91;59.28;;
58303;Laerm;44109;52.398;7.024;2023-07-30T09:44:47;51.58;43.68;65.03;;
58303;Laerm;44109;52.398;7.024;2023-07-30T09:47:15;50.42;41.39;71.57;;
58303;Laerm;44109;52.398;7.024;2023-07-30T09:49:43;49.81;41.51;57.97;;
58303;Laerm;44109;52.398;7.024;2023-07-30T09:52:13;50.76;40.88;59.72;;
58303;Laerm;44109;52.398;7.024;2023-07-30T09:54:42;51.35;43.03;68.82;;
58303;Laerm;44109;52.398;7.024;2023-07-30T09:57:10;54.07;42.09;65.34;;
58303;Laerm;44109;52.398;7.024;2023-07-30T09:59:38;51.73;41.98;60.69;;
58303;Laerm;44109;52.398;7.024;2023-07-30T10:02:08;51.56;42.91;60.87;;
58303;Laerm;44109;52.398;7.024;2023-07-30T10:04:47;51.87;43.52;58.67;;
58303;Laerm;44109;52.398;7.024;2023-07-30T10:07:20;50.25;41.15;66.84;;
58303;Laerm;44109;52.398;7.024;2023-07-30T10:09:54;50.34;41.12;64.02;;
58303;Laerm;44109;52.398;7.024;2023-07-30T10:12:32;51.65;42.78;62.98;;
58303;Laerm;44109;52.398;7.024;2023-07-30T10:15:01;49.46;39.75;57.98;;
58303;Laerm;44109;52.398;7.024;2023-07-30T10:17:32;50.00;40.45;64.50;;
58303;Laerm;44109;52.398;7.024;2023-07-30T10:20:20;50.50;43.46;62.42;;
58303;Laerm;44109;52.398;7.024;2023-07-30T10:22:52;50.10;41.59;59.25;;
58303;Laerm;44109;52.398;7.024;2023-07-30T10:25:27;49.43;40.18;59.27;;
58303;Laerm;44109;52.398;7.024;2023-07-30T10:27:55;49.43;38.35;58.32;;
58303;Laerm;44109;52.398;7.024;2023-07-30T10:30:31;49.29;38.51;66.87;;
58303;Laerm;44109;52.398;7.024;2023-07-30T10:33:02;51.24;38.73;73.65;;
58303;Laerm;44109;52.398;7.024;2023-07-30T10:35:39;49.71;40.16;64.44;;
58303;Laerm;44109;52.398;7.024;2023-07-30T10:38:17;57.59;41.12;81.36;;
58303;Laerm;44109;52.398;7.024;2023-07-30T10:41:06;54.07;41.84;74.66;;
58303;Laerm;44109;52.398;7.024;2023-07-30T10:43:36;51.03;40.66;62.65;;
58303;Laerm;44109;52.398;7.024;2023-07-30T10:46:06;53.58;42.83;70.50;;
58303;Laerm;44109;52.398;7.024;2023-07-30T10:48:36;52.05;44.33;66.81;;
58303;Laerm;44109;52.398;7.024;2023-07-30T10:51:06;54.13;44.73;64.03;;
58303;Laerm;44109;52.398;7.024;2023-07-30T10:53:34;52.31;42.84;61.47;;
58303;Laerm;44109;52.398;7.024;2023-07-30T10:56:06;53.81;43.34;74.91;;
58303;Laerm;44109;52.398;7.024;2023-07-30T10:58:35;52.05;43.34;59.03;;
58303;Laerm;44109;52.398;7.024;2023-07-30T11:01:07;52.78;46.28;59.01;;
58303;Laerm;44109;52.398;7.024;2023-07-30T11:03:35;53.80;46.65;60.79;;
58303;Laerm;44109;52.398;7.024;2023-07-30T11:06:04;54.33;46.91;67.99;;
58303;Laerm;44109;52.398;7.024;2023-07-30T11:08:36;54.45;46.07;65.36;;
58303;Laerm;44109;52.398;7.024;2023-07-30T11:11:08;53.41;43.97;70.18;;
58303;Laerm;44109;52.398;7.024;2023-07-30T11:13:36;53.93;43.54;78.64;;
58303;Laerm;44109;52.398;7.024;2023-07-30T11:16:05;52.29;42.90;72.48;;
58303;Laerm;44109;52.398;7.024;2023-07-30T11:18:35;50.81;43.09;59.55;;
58303;Laerm;44109;52.398;7.024;2023-07-30T11:21:04;56.98;45.32;70.93;;
58303;Laerm;44109;52.398;7.024;2023-07-30T11:23:33;56.24;48.45;63.53;;
58303;Laerm;44109;52.398;7.024;2023-07-30T11:26:04;56.71;46.77;70.52;;
58303;Laerm;44109;52.398;7.024;2023-07-30T11:28:35;57.09;47.97;65.96;;
58303;Laerm;44109;52.398;7.024;2023-07-30T11:31:05;53.18;42.19;61.89;;
58303;Laerm;44109;52.398;7.024;2023-07-30T11:33:35;49.84;41.41;58.37;;
58303;Laerm;44109;52.398;7.024;2023-07-30T11:36:04;54.60;41.71;66.25;;
58303;Laerm;44109;52.398;7.024;2023-07-30T11:38:32;56.19;49.23;64.64;;
58303;Laerm;44109;52.398;7.024;2023-07-30T11:41:01;55.15;44.56;70.01;;
58303;Laerm;44109;52.398;7.024;2023-07-30T11:43:29;53.31;43.78;64.84;;
58303;Laerm;44109;52.398;7.024;2023-07-30T11:46:13;58.17;46.99;83.22;;
58303;Laerm;44109;52.398;7.024;2023-07-30T11:48:44;63.62;45.69;94.55;;
58303;Laerm;44109;52.398;7.024;2023-07-30T11:51:23;52.30;40.87;78.83;;
58303;Laerm;44109;52.398;7.024;2023-07-30T11:53:53;49.78;39.97;65.94;;
58303;Laerm;44109;52.398;7.024;2023-07-30T11:56:23;49.68;39.25;72.25;;
58303;Laerm;44109;52.398;7.024;2023-07-30T11:58:54;49.89;38.31;62.02;;
58303;Laerm;44109;52.398;7.024;2023-07-30T12:01:26;49.22;37.91;64.11;;
58303;Laerm;44109;52.398;7.024;2023-07-30T12:03:55;51.07;39.76;75.79;;
58303;Laerm;44109;52.398;7.024;2023-07-30T12:06:23;50.72;39.60;74.06;;
58303;Laerm;44109;52.398;7.024;2023-07-30T12:08:51;48.89;37.84;59.54;;
58303;Laerm;44109;52.398;7.024;2023-07-30T12:11:19;50.51;37.80;72.10;;
58303;Laerm;44109;52.398;7.024;2023-07-30T12:13:47;50.19;38.10;66.84;;
58303;Laerm;44109;52.398;7.024;2023-07-30T12:16:16;56.95;41.71;82.59;;
58303;Laerm;44109;52.398;7.024;2023-07-30T12:18:45;82.25;57.20;103.11;;
58303;Laerm;44109;52.398;7.024;2023-07-30T12:21:13;79.18;48.63;101.75;;
58303;Laerm;44109;52.398;7.024;2023-07-30T12:23:40;75.45;49.02;100.13;;
58303;Laerm;44109;52.398;7.024;2023-07-30T12:26:09;81.72;60.12;104.31;;
58303;Laerm;44109;52.398;7.024;2023-07-30T12:28:37;73.84;45.67;100.07;;
58303;Laerm;44109;52.398;7.024;2023-07-30T12:31:04;69.10;42.25;99.08;;
58303;Laerm;44109;52.398;7.024;2023-07-30T12:33:32;57.58;42.31;88.07;;
58303;Laerm;44109;52.398;7.024;2023-07-30T12:36:01;55.84;41.18;88.65;;
58303;Laerm;44109;52.398;7.024;2023-07-30T12:38:29;57.49;39.51;92.71;;
58303;Laerm;44109;52.398;7.024;2023-07-30T12:40:56;51.08;40.54;77.48;;
58303;Laerm;44109;52.398;7.024;2023-07-30T12:43:24;49.47;39.16;72.99;;
58303;Laerm;44109;52.398;7.024;2023-07-30T12:45:52;51.87;37.02;72.56;;
58303;Laerm;44109;52.398;7.024;2023-07-30T12:48:19;49.07;37.36;63.89;;
58303;Laerm;44109;52.398;7.024;2023-07-30T12:50:47;48.90;36.87;71.75;;
58303;Laerm;44109;52.398;7.024;2023-07-30T12:53:16;48.46;37.35;62.70;;
58303;Laerm;44109;52.398;7.024;2023-07-30T12:55:44;49.23;38.02;66.02;;
58303;Laerm;44109;52.398;7.024;2023-07-30T12:58:11;49.91;38.80;68.12;;
58303;Laerm;44109;52.398;7.024;2023-07-30T13:00:39;50.45;39.88;71.41;;
58303;Laerm;44109;52.398;7.024;2023-07-30T13:03:07;49.56;39.07;71.69;;
58303;Laerm;44109;52.398;7.024;2023-07-30T13:05:35;59.07;41.62;91.19;;
58303;Laerm;44109;52.398;7.024;2023-07-30T13:08:02;51.49;41.53;67.91;;
58303;Laerm;44109;52.398;7.024;2023-07-30T13:10:32;51.86;41.20;72.92;;
58303;Laerm;44109;52.398;7.024;2023-07-30T13:12:59;50.82;41.25;61.82;;
58303;Laerm;44109;52.398;7.024;2023-07-30T13:15:27;49.97;39.03;66.36;;
58303;Laerm;44109;52.398;7.024;2023-07-30T13:17:55;51.20;38.60;60.09;;
58303;Laerm;44109;52.398;7.024;2023-07-30T13:20:22;49.96;39.99;58.54;;
58303;Laerm;44109;52.398;7.024;2023-07-30T13:22:50;50.19;39.46;66.48;;
58303;Laerm;44109;52.398;7.024;2023-07-30T13:25:18;58.26;39.78;87.15;;
58303;Laerm;44109;52.398;7.024;2023-07-30T13:27:47;54.16;40.52;77.92;;
58303;Laerm;44109;52.398;7.024;2023-07-30T13:30:15;51.58;41.20;67.08;;
58303;Laerm;44109;52.398;7.024;2023-07-30T13:32:42;52.17;39.97;74.56;;
58303;Laerm;44109;52.398;7.024;2023-07-30T13:35:10;50.37;40.91;61.92;;
58303;Laerm;44109;52.398;7.024;2023-07-30T13:37:38;50.57;39.39;62.95;;
58303;Laerm;44109;52.398;7.024;2023-07-30T13:40:07;51.00;42.46;64.63;;
58303;Laerm;44109;52.398;7.024;2023-07-30T13:42:35;49.31;40.58;63.90;;
58303;Laerm;44109;52.398;7.024;2023-07-30T13:45:05;51.10;40.23;69.54;;
58303;Laerm;44109;52.398;7.024;2023-07-30T13:47:33;50.83;40.83;60.12;;
58303;Laerm;44109;52.398;7.024;2023-07-30T13:50:01;49.90;41.57;64.58;;
58303;Laerm;44109;52.398;7.024;2023-07-30T13:52:28;52.46;40.63;63.31;;